Airfield :
LOGIN :

Register | Disclaimer

   EN    FR    IT 

 










Legend :    VFR   Marginal VFR   IFR   Intensive IFR   Very Intensive IFR
Visi :
Ceiling :
>= 8 km
>= 3000ft
5 to 8 km
1000 to 3000 ft
1500m to 5 km
500 to 1000 ft
800 to 1500m
200 to 500 ft
< 800m
< 200 ft
Symbols :   Thunderstorms  Fog  Heavy snow  Heavy precipitations  Wind > 20 kt
SIGMETs :     Misc.  Thunderstorms  Icing  Turbulence  Mountain Waves  Volcanic Ashes






- Airport Elevation : 25 ft
- IATA code : QCY


EGXC - RAF Coningsby

CURRENT METAR :
  • 241150Z 19017KT 9999 SCT018 BKN050 BKN200 14/11 Q0998 RMK BLU

EXPIRED METARs :
  • 241050Z 19015KT 9999 FEW018 SCT050 BKN080 13/10 Q0999 RMK BLU
  • 240950Z 19011KT 9999 FEW018 BKN060 BKN200 11/09 Q1000 RMK BLU

TAF TAF EGXC
Valid from the 24 at 12:00 until the 25 at 06:00 UTC


241016Z 2412/2506 19022G33KT 9999 BKN030
PROB30
TEMPO 2412/2415 7000 -RA BKN018
TEMPO 2415/2419 4000 RA BKN012
PROB30
TEMPO 2416/2418 3000 +RA
BECMG 2418/2420 19010KT
TEMPO 2419/2501 4000 RA BKN012



MET'MAP, your aeronautical weather chart ! - Copyright ORBIFLY December 2007 - Disclaimer

ORBIFLY MET'MAP TEAM :

Programming & Development : Alexandra Zaïnal
Concept & original design : Baudouin d'Aumeries
Assistance for programming : Marc-Olivier Méhu
Technical & hardware support : Manuel Goepfert

Contact : metmap@orbifly.com




SOURCES & CREDITS :

   NOAA